createdAt,value
2018-06-25T00:01:46.878Z,7.40
2018-06-25T00:04:46.821Z,10.30
2018-06-25T00:07:46.791Z,8.10
2018-06-25T00:10:46.739Z,6.20
2018-06-25T00:13:46.706Z,7.00
2018-06-25T00:16:46.671Z,7.70
2018-06-25T00:19:46.623Z,7.20
2018-06-25T00:22:46.632Z,6.70
2018-06-25T00:25:46.564Z,7.40
2018-06-25T00:28:46.560Z,5.80
2018-06-25T00:31:46.490Z,7.70
2018-06-25T00:34:46.490Z,6.60
2018-06-25T00:37:46.425Z,8.50
2018-06-25T00:40:46.401Z,7.10
2018-06-25T00:43:46.357Z,6.60
2018-06-25T00:46:46.349Z,6.50
2018-06-25T00:49:46.280Z,8.60
2018-06-25T00:52:46.256Z,7.20
2018-06-25T00:55:46.221Z,7.60
2018-06-25T00:58:46.208Z,9.80
2018-06-25T01:01:46.727Z,6.00
2018-06-25T01:04:46.118Z,6.70
2018-06-25T01:07:46.066Z,6.90
2018-06-25T01:10:46.097Z,7.20
2018-06-25T01:13:46.017Z,5.70
2018-06-25T01:16:46.011Z,7.80
2018-06-25T01:19:45.931Z,8.20
2018-06-25T01:22:46.053Z,8.20
2018-06-25T01:25:45.897Z,8.30
2018-06-25T01:28:45.858Z,7.10
2018-06-25T01:31:45.803Z,8.50
2018-06-25T01:34:45.788Z,5.30
2018-06-25T01:37:45.728Z,7.40
2018-06-25T01:40:45.761Z,6.80
2018-06-25T01:43:45.673Z,5.90
2018-06-25T01:46:45.644Z,7.70
2018-06-25T01:49:45.661Z,8.90
2018-06-25T01:52:45.583Z,7.30
2018-06-25T01:55:45.534Z,8.40
2018-06-25T01:58:45.729Z,7.90
2018-06-25T02:01:45.469Z,8.70
2018-06-25T02:04:45.447Z,10.80
2018-06-25T02:07:45.409Z,11.40
2018-06-25T02:10:45.366Z,9.90
2018-06-25T02:13:45.330Z,10.40
2018-06-25T02:16:45.323Z,11.90
2018-06-25T02:19:45.254Z,10.40
2018-06-25T02:22:45.218Z,8.70
2018-06-25T02:25:45.199Z,8.60
2018-06-25T02:28:45.160Z,11.30
2018-06-25T02:31:45.125Z,10.90
2018-06-25T02:34:45.112Z,12.40
2018-06-25T02:37:45.056Z,12.50
2018-06-25T02:40:45.017Z,12.30
2018-06-25T02:43:44.989Z,11.20
2018-06-25T02:46:44.945Z,10.50
2018-06-25T02:49:44.898Z,12.10
2018-06-25T02:52:44.908Z,11.60
2018-06-25T02:55:44.840Z,9.60
2018-06-25T02:58:44.830Z,10.10
2018-06-25T03:01:44.763Z,15.80
2018-06-25T03:04:44.782Z,17.00
2018-06-25T03:07:44.704Z,16.80
2018-06-25T03:10:44.686Z,19.00
2018-06-25T03:13:44.632Z,16.70
2018-06-25T03:16:44.614Z,15.80
2018-06-25T03:19:44.547Z,18.30
2018-06-25T03:22:44.533Z,17.70
2018-06-25T03:25:44.494Z,18.00
2018-06-25T03:28:44.458Z,21.70
2018-06-25T03:31:44.430Z,21.80
2018-06-25T03:34:44.425Z,19.80
2018-06-25T03:37:44.368Z,23.20
2018-06-25T03:40:44.337Z,22.50
2018-06-25T03:43:44.274Z,18.00
2018-06-25T03:46:44.251Z,20.60
2018-06-25T03:49:44.223Z,17.60
2018-06-25T03:52:44.184Z,20.50
2018-06-25T03:55:44.131Z,19.50
2018-06-25T03:58:44.127Z,22.90
2018-06-25T04:01:44.078Z,19.90
2018-06-25T04:04:44.051Z,21.60
2018-06-25T04:07:44.020Z,21.00
2018-06-25T04:10:43.986Z,22.00
2018-06-25T04:13:43.921Z,21.10
2018-06-25T04:16:43.904Z,19.00
2018-06-25T04:19:43.854Z,17.80
2018-06-25T04:22:43.846Z,18.00
2018-06-25T04:25:43.783Z,21.10
2018-06-25T04:28:43.791Z,20.60
2018-06-25T04:31:43.711Z,17.40
2018-06-25T04:34:43.714Z,19.90
2018-06-25T04:37:43.655Z,20.10
2018-06-25T04:40:43.655Z,20.30
2018-06-25T04:43:43.583Z,18.50
2018-06-25T04:46:43.560Z,22.90
2018-06-25T04:49:43.538Z,22.10
2018-06-25T04:52:43.500Z,22.60
2018-06-25T04:55:43.439Z,27.20
2018-06-25T04:58:43.438Z,27.00
2018-06-25T05:01:43.373Z,25.30
2018-06-25T05:04:43.384Z,20.70
2018-06-25T05:07:43.304Z,26.20
2018-06-25T05:10:43.280Z,20.60
2018-06-25T05:13:43.243Z,22.80
2018-06-25T05:16:43.233Z,28.10
2018-06-25T05:19:43.225Z,21.60
2018-06-25T05:22:43.151Z,21.90
2018-06-25T05:25:43.108Z,23.20
2018-06-25T05:28:43.075Z,21.10
2018-06-25T05:31:43.026Z,21.50
2018-06-25T05:34:43.047Z,16.90
2018-06-25T05:37:42.984Z,20.60
2018-06-25T05:40:42.964Z,16.50
2018-06-25T05:43:42.905Z,21.50
2018-06-25T05:46:42.879Z,18.20
2018-06-25T05:49:42.821Z,17.60
2018-06-25T05:52:42.810Z,17.50
2018-06-25T05:55:42.765Z,16.50
2018-06-25T05:58:42.756Z,16.90
2018-06-25T06:01:42.695Z,16.40
2018-06-25T06:04:42.683Z,16.80
2018-06-25T06:07:42.634Z,15.30
2018-06-25T06:10:42.595Z,14.70
2018-06-25T06:13:44.190Z,12.80
2018-06-25T06:16:42.531Z,13.80
2018-06-25T06:19:42.520Z,15.80
2018-06-25T06:22:42.444Z,14.60
2018-06-25T06:25:42.415Z,9.90
2018-06-25T06:28:42.414Z,9.00
2018-06-25T06:31:42.386Z,7.70
2018-06-25T06:34:42.358Z,8.90
2018-06-25T06:37:42.265Z,10.10
2018-06-25T06:40:42.302Z,12.80
2018-06-25T06:43:42.206Z,14.10
2018-06-25T06:46:42.185Z,12.30
2018-06-25T06:49:42.128Z,12.60
2018-06-25T06:52:42.101Z,16.10
2018-06-25T06:55:42.066Z,14.60
2018-06-25T06:58:42.034Z,11.80
2018-06-25T07:01:41.982Z,10.70
2018-06-25T07:04:42.011Z,10.60
2018-06-25T07:07:42.053Z,9.80
2018-06-25T07:10:41.887Z,7.60
2018-06-25T07:13:41.846Z,7.80
2018-06-25T07:16:41.860Z,7.50
2018-06-25T07:19:41.785Z,7.30
2018-06-25T07:22:42.690Z,7.70
2018-06-25T07:25:41.710Z,7.70
2018-06-25T07:28:41.689Z,7.20
2018-06-25T07:31:41.648Z,6.70
2018-06-25T07:34:41.648Z,8.00
2018-06-25T07:37:41.570Z,5.80
2018-06-25T07:40:41.560Z,5.50
2018-06-25T07:43:41.503Z,6.50
2018-06-25T07:46:41.501Z,6.00
2018-06-25T07:49:41.428Z,6.50
2018-06-25T07:52:41.423Z,7.10
2018-06-25T07:55:41.358Z,6.80
2018-06-25T07:58:41.350Z,6.40
2018-06-25T08:01:41.298Z,8.30
2018-06-25T08:04:41.292Z,6.50
2018-06-25T08:07:41.220Z,6.10
2018-06-25T08:10:41.219Z,6.50
2018-06-25T08:13:41.169Z,6.30
2018-06-25T08:16:41.215Z,7.10
2018-06-25T08:19:41.083Z,7.40
2018-06-25T08:22:41.081Z,9.10
2018-06-25T08:25:41.030Z,6.70
2018-06-25T08:28:41.005Z,6.00
2018-06-25T08:31:40.948Z,7.00
2018-06-25T08:34:40.942Z,6.50
2018-06-25T08:37:40.892Z,5.30
2018-06-25T08:40:40.876Z,6.10
2018-06-25T08:43:40.820Z,7.20
2018-06-25T08:46:40.809Z,6.10
2018-06-25T08:49:40.757Z,6.80
2018-06-25T08:52:40.746Z,7.30
2018-06-25T08:55:40.689Z,7.80
2018-06-25T08:58:40.678Z,7.30
2018-06-25T09:01:40.626Z,6.00
2018-06-25T09:04:40.609Z,5.70
2018-06-25T09:07:40.560Z,5.20
2018-06-25T09:10:41.197Z,6.20
2018-06-25T09:13:40.493Z,6.80
2018-06-25T09:16:40.476Z,7.20
2018-06-25T09:19:40.440Z,6.00
2018-06-25T09:22:40.425Z,5.90
2018-06-25T09:25:40.366Z,7.00
2018-06-25T09:28:40.353Z,6.50
2018-06-25T09:31:40.296Z,7.50
2018-06-25T09:34:40.271Z,7.30
2018-06-25T09:37:40.244Z,5.70
2018-06-25T09:40:40.225Z,8.40
2018-06-25T09:43:40.168Z,5.30
2018-06-25T09:46:40.287Z,5.00
2018-06-25T09:49:40.117Z,5.60
2018-06-25T09:52:40.093Z,6.20
2018-06-25T09:55:40.039Z,5.80
2018-06-25T09:58:40.025Z,5.50
2018-06-25T10:01:39.968Z,6.40
2018-06-25T10:04:39.960Z,5.80
2018-06-25T10:07:39.907Z,6.20
2018-06-25T10:10:39.937Z,6.00
2018-06-25T10:13:39.841Z,6.00
2018-06-25T10:16:39.833Z,6.30
2018-06-25T10:19:39.812Z,6.50
2018-06-25T10:22:39.820Z,5.40
2018-06-25T10:25:39.724Z,4.20
2018-06-25T10:28:39.698Z,7.10
2018-06-25T10:31:39.652Z,6.00
2018-06-25T10:34:39.645Z,6.20
2018-06-25T10:37:39.832Z,6.40
2018-06-25T10:40:39.564Z,6.90
2018-06-25T10:43:39.554Z,6.60
2018-06-25T10:46:39.503Z,5.30
2018-06-25T10:49:39.465Z,5.20
2018-06-25T10:52:39.435Z,5.30
2018-06-25T10:55:39.394Z,6.70
2018-06-25T10:58:39.377Z,5.70
2018-06-25T11:01:39.329Z,5.10
2018-06-25T11:04:39.337Z,5.00
2018-06-25T11:07:39.487Z,7.10
2018-06-25T11:10:39.252Z,5.90
2018-06-25T11:13:39.204Z,5.70
2018-06-25T11:16:39.185Z,6.60
2018-06-25T11:19:39.141Z,6.80
2018-06-25T11:22:39.121Z,6.50
2018-06-25T11:25:39.087Z,7.50
2018-06-25T11:28:39.067Z,6.80
2018-06-25T11:31:39.060Z,6.60
2018-06-25T11:34:39.037Z,6.00
2018-06-25T11:37:38.953Z,6.40
2018-06-25T11:40:38.928Z,4.20
2018-06-25T11:43:38.887Z,4.90
2018-06-25T11:46:38.868Z,5.30
2018-06-25T11:49:38.847Z,5.20
2018-06-25T11:52:38.804Z,4.40
2018-06-25T11:55:38.764Z,6.30
2018-06-25T11:58:38.760Z,8.50
2018-06-25T12:01:38.738Z,6.00
2018-06-25T12:04:38.675Z,6.70
2018-06-25T12:07:38.638Z,5.80
2018-06-25T12:10:38.663Z,7.00
2018-06-25T12:13:38.593Z,5.10
2018-06-25T12:16:38.568Z,7.00
2018-06-25T12:19:38.505Z,4.60
2018-06-25T12:22:38.485Z,5.40
2018-06-25T12:25:38.478Z,5.90
2018-06-25T12:28:38.435Z,5.30
2018-06-25T12:31:38.384Z,4.50
2018-06-25T12:34:38.361Z,6.60
2018-06-25T12:37:38.379Z,5.80
2018-06-25T12:40:38.308Z,6.20
2018-06-25T12:43:38.254Z,5.80
2018-06-25T12:46:38.229Z,5.60
2018-06-25T12:49:38.194Z,7.60
2018-06-25T12:52:38.173Z,6.00
2018-06-25T12:55:38.156Z,5.20
2018-06-25T12:58:38.146Z,5.80
2018-06-25T13:01:38.090Z,7.10
2018-06-25T13:04:38.049Z,6.60
2018-06-25T13:07:37.999Z,6.40
2018-06-25T13:10:37.976Z,5.80
2018-06-25T13:13:37.936Z,7.50
2018-06-25T13:16:37.910Z,6.90
2018-06-25T13:19:37.867Z,5.40
2018-06-25T13:22:37.837Z,7.70
2018-06-25T13:25:37.912Z,6.30
2018-06-25T13:28:37.790Z,6.20
2018-06-25T13:31:37.782Z,5.70
2018-06-25T13:34:37.719Z,5.70
2018-06-25T13:37:37.865Z,6.50
2018-06-25T13:40:37.686Z,5.10
2018-06-25T13:43:37.628Z,8.40
2018-06-25T13:46:37.610Z,6.90
2018-06-25T13:49:37.578Z,4.90
2018-06-25T13:52:37.576Z,5.50
2018-06-25T13:55:37.521Z,4.60
2018-06-25T13:58:37.500Z,8.10
2018-06-25T14:01:37.476Z,4.90
2018-06-25T14:04:37.457Z,4.50
2018-06-25T14:07:37.417Z,5.60
2018-06-25T14:10:37.401Z,3.80
2018-06-25T14:13:37.371Z,4.50
2018-06-25T14:16:37.433Z,7.00
2018-06-25T14:19:37.342Z,5.90
2018-06-25T14:22:38.239Z,5.70
2018-06-25T14:25:37.264Z,5.70
2018-06-25T14:28:37.254Z,7.90
2018-06-25T14:31:37.339Z,4.00
2018-06-25T14:34:37.223Z,7.40
2018-06-25T14:37:37.154Z,7.70
2018-06-25T14:40:37.125Z,7.00
2018-06-25T14:43:37.109Z,7.80
2018-06-25T14:46:37.085Z,6.90
2018-06-25T14:49:37.040Z,10.10
2018-06-25T14:52:37.056Z,7.00
2018-06-25T14:55:36.968Z,7.80
2018-06-25T14:58:36.948Z,6.90
2018-06-25T15:01:37.696Z,5.90
2018-06-25T15:04:36.888Z,6.30
2018-06-25T15:07:36.855Z,8.70
2018-06-25T15:10:36.825Z,9.50
2018-06-25T15:13:36.803Z,51.50
2018-06-25T15:16:36.770Z,6.70
2018-06-25T15:19:36.730Z,15.20
2018-06-25T15:22:36.729Z,6.30
2018-06-25T15:25:36.678Z,7.50
2018-06-25T15:28:36.657Z,5.10
2018-06-25T15:31:36.639Z,7.80
2018-06-25T15:34:36.702Z,8.70
2018-06-25T15:37:36.603Z,6.10
2018-06-25T15:40:36.601Z,6.30
2018-06-25T15:43:36.523Z,5.80
2018-06-25T15:46:36.528Z,5.50
2018-06-25T15:49:36.467Z,6.50
2018-06-25T15:52:36.453Z,6.80
2018-06-25T15:55:36.471Z,7.70
2018-06-25T15:58:36.395Z,5.60
2018-06-25T16:01:36.446Z,5.40
2018-06-25T16:04:36.355Z,5.50
2018-06-25T16:07:36.862Z,5.60
2018-06-25T16:10:36.316Z,7.60
2018-06-25T16:13:36.251Z,6.70
2018-06-25T16:16:36.210Z,4.90
2018-06-25T16:19:36.168Z,5.10
2018-06-25T16:22:36.175Z,6.00
2018-06-25T16:25:36.106Z,6.50
2018-06-25T16:28:36.094Z,4.40
2018-06-25T16:31:36.042Z,6.10
2018-06-25T16:34:36.021Z,5.70
2018-06-25T16:37:35.975Z,8.20
2018-06-25T16:40:35.972Z,6.90
2018-06-25T16:43:35.924Z,6.10
2018-06-25T16:46:35.926Z,5.60
2018-06-25T16:49:35.842Z,5.90
2018-06-25T16:52:35.853Z,7.00
2018-06-25T16:55:35.807Z,7.10
2018-06-25T16:58:35.780Z,6.30
2018-06-25T17:01:35.723Z,6.60
2018-06-25T17:04:35.700Z,5.30
2018-06-25T17:07:35.758Z,5.30
2018-06-25T17:10:35.686Z,4.70
2018-06-25T17:13:35.602Z,7.30
2018-06-25T17:16:35.574Z,4.30
2018-06-25T17:19:35.545Z,6.30
2018-06-25T17:22:35.516Z,5.00
2018-06-25T17:25:35.483Z,4.80
2018-06-25T17:28:35.459Z,7.40
2018-06-25T17:31:35.423Z,4.40
2018-06-25T17:34:35.382Z,5.80
2018-06-25T17:37:35.350Z,4.70
2018-06-25T17:40:35.326Z,6.50
2018-06-25T17:43:35.283Z,5.80
2018-06-25T17:46:35.263Z,6.50
2018-06-25T17:49:35.228Z,6.50
2018-06-25T17:52:35.211Z,7.70
2018-06-25T17:55:35.149Z,9.20
2018-06-25T17:58:35.140Z,5.90
2018-06-25T18:01:35.095Z,6.00
2018-06-25T18:04:35.074Z,9.90
2018-06-25T18:07:35.035Z,7.90
2018-06-25T18:10:34.997Z,8.20
2018-06-25T18:13:34.950Z,10.70
2018-06-25T18:16:34.937Z,7.40
2018-06-25T18:19:34.913Z,9.50
2018-06-25T18:22:34.888Z,7.70
2018-06-25T18:25:34.828Z,8.10
2018-06-25T18:28:34.793Z,10.50
2018-06-25T18:31:34.775Z,7.90
2018-06-25T18:34:34.734Z,8.80
2018-06-25T18:37:34.720Z,7.80
2018-06-25T18:40:34.675Z,9.00
2018-06-25T18:43:34.625Z,9.20
2018-06-25T18:46:34.604Z,7.30
2018-06-25T18:49:34.551Z,10.40
2018-06-25T18:52:34.523Z,11.30
2018-06-25T18:55:34.486Z,9.20
2018-06-25T18:58:34.473Z,11.00
2018-06-25T19:01:34.421Z,8.20
2018-06-25T19:04:34.389Z,10.60
2018-06-25T19:07:34.473Z,10.70
2018-06-25T19:10:34.332Z,8.00
2018-06-25T19:13:34.302Z,10.00
2018-06-25T19:16:34.258Z,9.50
2018-06-25T19:19:34.219Z,8.30
2018-06-25T19:22:34.206Z,10.20
2018-06-25T19:25:34.143Z,12.00
2018-06-25T19:28:34.209Z,12.80
2018-06-25T19:31:34.087Z,9.90
2018-06-25T19:34:34.075Z,12.10
2018-06-25T19:37:34.095Z,11.60
2018-06-25T19:40:33.983Z,11.10
2018-06-25T19:43:33.941Z,12.20
2018-06-25T19:46:33.927Z,10.00
2018-06-25T19:49:33.873Z,10.60
2018-06-25T19:52:34.694Z,11.10
2018-06-25T19:55:33.817Z,10.40
2018-06-25T19:58:33.786Z,9.10
2018-06-25T20:01:33.747Z,10.60
2018-06-25T20:04:33.716Z,10.80
2018-06-25T20:07:33.673Z,8.40
2018-06-25T20:10:33.665Z,8.10
2018-06-25T20:13:33.615Z,7.70
2018-06-25T20:16:33.635Z,8.70
2018-06-25T20:19:33.636Z,8.00
2018-06-25T20:22:33.593Z,5.90
2018-06-25T20:25:33.466Z,6.90
2018-06-25T20:28:33.450Z,4.40
2018-06-25T20:31:33.400Z,9.00
2018-06-25T20:34:33.381Z,8.70
2018-06-25T20:37:33.411Z,6.70
2018-06-25T20:40:33.298Z,5.10
2018-06-25T20:43:34.195Z,6.10
2018-06-25T20:46:33.274Z,6.30
2018-06-25T20:49:33.196Z,6.00
2018-06-25T20:52:33.165Z,6.10
2018-06-25T20:55:33.136Z,6.10
2018-06-25T20:58:33.104Z,7.70
2018-06-25T21:01:33.059Z,6.00
2018-06-25T21:04:33.046Z,6.60
2018-06-25T21:07:32.997Z,7.10
2018-06-25T21:10:32.977Z,5.60
2018-06-25T21:13:32.920Z,5.20
2018-06-25T21:16:32.903Z,6.70
2018-06-25T21:19:32.850Z,5.30
2018-06-25T21:22:32.858Z,7.20
2018-06-25T21:25:32.785Z,4.60
2018-06-25T21:28:32.767Z,5.30
2018-06-25T21:31:32.708Z,5.20
2018-06-25T21:34:32.702Z,4.20
2018-06-25T21:37:32.650Z,4.20
2018-06-25T21:40:32.627Z,6.60
2018-06-25T21:43:32.574Z,6.00
2018-06-25T21:46:32.562Z,6.80
2018-06-25T21:49:32.514Z,7.10
2018-06-25T21:52:32.495Z,5.70
2018-06-25T21:55:32.437Z,6.10
2018-06-25T21:58:32.587Z,5.30
2018-06-25T22:01:32.373Z,7.60
2018-06-25T22:04:32.702Z,5.10
2018-06-25T22:07:32.306Z,6.80
2018-06-25T22:10:32.287Z,5.90
2018-06-25T22:13:32.240Z,7.30
2018-06-25T22:16:32.212Z,6.90
2018-06-25T22:19:32.172Z,7.60
2018-06-25T22:22:32.146Z,5.70
2018-06-25T22:25:32.118Z,6.20
2018-06-25T22:28:32.089Z,7.80
2018-06-25T22:31:32.034Z,7.40
2018-06-25T22:34:32.009Z,6.60
2018-06-25T22:37:31.972Z,6.60
2018-06-25T22:40:31.956Z,6.60
2018-06-25T22:43:31.896Z,6.20
2018-06-25T22:46:31.868Z,5.60
2018-06-25T22:49:31.832Z,4.90
2018-06-25T22:52:31.810Z,7.50
2018-06-25T22:55:31.764Z,7.10
2018-06-25T22:58:31.747Z,6.70
2018-06-25T23:01:31.697Z,6.50
2018-06-25T23:04:31.677Z,7.30
2018-06-25T23:07:31.629Z,6.80
2018-06-25T23:10:31.602Z,6.20
2018-06-25T23:13:31.557Z,8.10
2018-06-25T23:16:31.543Z,7.20
2018-06-25T23:19:31.490Z,6.80
2018-06-25T23:22:31.474Z,7.50
2018-06-25T23:25:31.414Z,4.80
2018-06-25T23:28:31.401Z,5.10
2018-06-25T23:31:31.351Z,6.80
2018-06-25T23:34:31.338Z,7.20
2018-06-25T23:37:33.163Z,6.40
2018-06-25T23:40:31.267Z,9.60
2018-06-25T23:43:31.221Z,8.00
2018-06-25T23:46:31.194Z,7.80
2018-06-25T23:49:31.167Z,7.70
2018-06-25T23:52:31.128Z,7.00
2018-06-25T23:55:31.087Z,8.20
2018-06-25T23:58:31.169Z,7.60
